首页
METAR-TAF:

METAR-TAF

机场 :

倫敦希斯路機場, 英格兰

纬度: 51-29N, 经度: 000-27W, 海拔: 24米

当前天气观测

该预报发布于35分钟前的00:50 UTC
风速6节,风向,在北转西北东北之间变化
温度 7°C
湿度 100%
气压 1013 hPa
能见度10公里或以上
散云层高于1200英尺
多云层高于1800英尺
多云层高于2200英尺

METAR: EGLL 180050Z AUTO 01006KT 330V050 9999 SCT012 BKN018 BKN022 07/07 Q1013 TEMPO BKN012

时间: 01:25 (01:25 UTC)

预报

该预报发布于2小时和21分钟前的23:04 UTC
预报有效从18日的 00点(UTC)到 19日的 06点(UTC)
风速4节,风向东北
能見度: 3000
多云层高于1000英尺
轻雾
几率 40% :
短暂存在
从 18日的 00点(UTC)到 18日的 02点(UTC)
多云层高于300英尺
雨, 毛毛雨
成为
从 18日的 01点(UTC)到 18日的 04点(UTC)
风速10节,风向北转西北
能见度10公里或以上
散云层高于1600英尺
几率 30% :
短暂存在
从 18日的 07点(UTC)到 18日的 12点(UTC)
多云层高于1400英尺
成为
从 18日的 20点(UTC)到 18日的 23点(UTC)
能見度: 6000
成为
从 18日的 23点(UTC)到 19日的 01点(UTC)
能見度: 2000
轻雾
几率 40%
从 18日的 23点(UTC)到 19日的 06点(UTC)
能見度: 0200
雾, 冻雾

TAF: EGLL 172304Z 1800/1906 04004KT 3000 BR BKN010 PROB40 TEMPO 1800/1802 RADZ BKN003 BECMG 1801/1804 34010KT 9999 NSW SCT016 PROB30 TEMPO 1807/1812 BKN014 BECMG 1820/1823 6000 BECMG 1823/1901 2000 BR PROB40 1823/1906 0200 FG FZFG VV///

超过4000个机场的气象观测和天气预报(METAR&TAF报告)。

可查询的气象台以黄色和红色小点在地图上表示。

将鼠标移到小点上方,可查看气象台名称。

然后点击查看天气观测和预报。

如需切换地图:点击带黑十字的绿色按钮放大地图;点击带横线的绿色按钮缩小地图;或者点击绿色箭头查看邻近地区的地图。


METAR-TAF: